Terminal Aerodrome Forecast
Issued by NWS Glasgow, MT

Home | Current Version | Previous Version | Text Only | Print | Product List | Glossary On
Versions: 1 2 3 4 5 6 7 8 9 10 11 12 13 14 15 16 17
000
FTUS45 KGGW 041127
TAFGGW
TAF
KGGW 041127Z 0412/0512 27008KT P6SM SCT120
     FM041600 20008KT P6SM BKN100
     FM050000 19008KT P6SM VCSH OVC040
     FM050300 28010KT P6SM VCSH OVC040
     FM050600 31017G26KT P6SM VCSH OVC015=

USA.gov is the U.S. government's official web portal to all federal, state and local government web resources and services.